sensor_id;sensor_type;location;lat;lon;timestamp;P1;durP1;ratioP1;P2;durP2;ratioP2
27003;SDS011;14546;47.590;19.022;2022-12-16T00:01:39;42.58;;;18.10;;
27003;SDS011;14546;47.590;19.022;2022-12-16T00:04:05;43.00;;;18.27;;
27003;SDS011;14546;47.590;19.022;2022-12-16T00:06:31;37.03;;;16.75;;
27003;SDS011;14546;47.590;19.022;2022-12-16T00:08:58;41.55;;;17.08;;
27003;SDS011;14546;47.590;19.022;2022-12-16T00:11:27;35.70;;;17.05;;
27003;SDS011;14546;47.590;19.022;2022-12-16T00:13:59;41.60;;;16.98;;
27003;SDS011;14546;47.590;19.022;2022-12-16T00:16:25;33.45;;;16.05;;
27003;SDS011;14546;47.590;19.022;2022-12-16T00:18:51;34.67;;;15.43;;
27003;SDS011;14546;47.590;19.022;2022-12-16T00:21:17;29.20;;;15.07;;
27003;SDS011;14546;47.590;19.022;2022-12-16T00:23:43;34.05;;;15.05;;
27003;SDS011;14546;47.590;19.022;2022-12-16T00:26:10;30.90;;;15.07;;
27003;SDS011;14546;47.590;19.022;2022-12-16T00:28:36;32.97;;;16.23;;
27003;SDS011;14546;47.590;19.022;2022-12-16T00:31:03;28.60;;;14.63;;
27003;SDS011;14546;47.590;19.022;2022-12-16T00:33:29;31.10;;;14.95;;
27003;SDS011;14546;47.590;19.022;2022-12-16T00:35:55;30.75;;;14.65;;
27003;SDS011;14546;47.590;19.022;2022-12-16T00:38:22;27.30;;;15.35;;
27003;SDS011;14546;47.590;19.022;2022-12-16T00:40:48;30.65;;;15.15;;
27003;SDS011;14546;47.590;19.022;2022-12-16T00:43:14;27.73;;;14.55;;
27003;SDS011;14546;47.590;19.022;2022-12-16T00:45:40;25.85;;;14.80;;
27003;SDS011;14546;47.590;19.022;2022-12-16T00:48:06;40.42;;;15.23;;
27003;SDS011;14546;47.590;19.022;2022-12-16T00:50:33;25.73;;;14.88;;
27003;SDS011;14546;47.590;19.022;2022-12-16T00:53:00;30.17;;;15.23;;
27003;SDS011;14546;47.590;19.022;2022-12-16T00:55:26;33.45;;;16.73;;
27003;SDS011;14546;47.590;19.022;2022-12-16T00:57:53;38.80;;;18.33;;
27003;SDS011;14546;47.590;19.022;2022-12-16T01:00:19;37.25;;;17.92;;
27003;SDS011;14546;47.590;19.022;2022-12-16T01:03:05;35.53;;;16.38;;
27003;SDS011;14546;47.590;19.022;2022-12-16T01:05:31;39.08;;;18.42;;
27003;SDS011;14546;47.590;19.022;2022-12-16T01:07:57;44.50;;;18.48;;
27003;SDS011;14546;47.590;19.022;2022-12-16T01:10:24;34.80;;;17.60;;
27003;SDS011;14546;47.590;19.022;2022-12-16T01:12:51;30.92;;;16.88;;
27003;SDS011;14546;47.590;19.022;2022-12-16T01:15:17;32.53;;;17.13;;
27003;SDS011;14546;47.590;19.022;2022-12-16T01:17:44;33.90;;;18.25;;
27003;SDS011;14546;47.590;19.022;2022-12-16T01:20:10;32.65;;;17.70;;
27003;SDS011;14546;47.590;19.022;2022-12-16T01:22:37;30.00;;;17.42;;
27003;SDS011;14546;47.590;19.022;2022-12-16T01:25:03;31.00;;;16.98;;
27003;SDS011;14546;47.590;19.022;2022-12-16T01:27:31;42.17;;;18.65;;
27003;SDS011;14546;47.590;19.022;2022-12-16T01:29:57;29.02;;;17.02;;
27003;SDS011;14546;47.590;19.022;2022-12-16T01:32:24;29.88;;;16.90;;
27003;SDS011;14546;47.590;19.022;2022-12-16T01:34:51;30.23;;;17.65;;
27003;SDS011;14546;47.590;19.022;2022-12-16T01:37:18;32.15;;;18.58;;
27003;SDS011;14546;47.590;19.022;2022-12-16T01:39:47;32.03;;;16.98;;
27003;SDS011;14546;47.590;19.022;2022-12-16T01:42:14;33.47;;;17.45;;
27003;SDS011;14546;47.590;19.022;2022-12-16T01:44:46;29.60;;;16.30;;
27003;SDS011;14546;47.590;19.022;2022-12-16T01:47:21;29.17;;;17.42;;
27003;SDS011;14546;47.590;19.022;2022-12-16T01:49:59;28.70;;;17.52;;
27003;SDS011;14546;47.590;19.022;2022-12-16T01:52:29;29.92;;;16.95;;
27003;SDS011;14546;47.590;19.022;2022-12-16T01:55:01;30.02;;;17.48;;
27003;SDS011;14546;47.590;19.022;2022-12-16T01:57:34;30.58;;;17.52;;
27003;SDS011;14546;47.590;19.022;2022-12-16T02:00:02;30.25;;;17.48;;
27003;SDS011;14546;47.590;19.022;2022-12-16T02:02:29;32.53;;;18.52;;
27003;SDS011;14546;47.590;19.022;2022-12-16T02:04:55;30.83;;;18.02;;
27003;SDS011;14546;47.590;19.022;2022-12-16T02:07:39;29.17;;;16.52;;
27003;SDS011;14546;47.590;19.022;2022-12-16T02:10:05;31.58;;;16.50;;
27003;SDS011;14546;47.590;19.022;2022-12-16T02:12:35;28.95;;;16.48;;
27003;SDS011;14546;47.590;19.022;2022-12-16T02:28:40;31.35;;;16.55;;
27003;SDS011;14546;47.590;19.022;2022-12-16T02:33:48;26.25;;;14.57;;
27003;SDS011;14546;47.590;19.022;2022-12-16T02:39:39;40.05;;;17.92;;
27003;SDS011;14546;47.590;19.022;2022-12-16T02:44:27;44.83;;;19.33;;
27003;SDS011;14546;47.590;19.022;2022-12-16T02:46:56;34.10;;;17.58;;
27003;SDS011;14546;47.590;19.022;2022-12-16T02:51:48;39.30;;;17.88;;
27003;SDS011;14546;47.590;19.022;2022-12-16T02:54:14;36.63;;;16.75;;
27003;SDS011;14546;47.590;19.022;2022-12-16T02:59:27;39.33;;;19.05;;
27003;SDS011;14546;47.590;19.022;2022-12-16T03:04:45;32.67;;;16.90;;
27003;SDS011;14546;47.590;19.022;2022-12-16T03:07:13;36.13;;;18.05;;
27003;SDS011;14546;47.590;19.022;2022-12-16T03:09:41;36.08;;;17.85;;
27003;SDS011;14546;47.590;19.022;2022-12-16T03:12:09;34.50;;;18.08;;
27003;SDS011;14546;47.590;19.022;2022-12-16T03:14:38;45.83;;;18.50;;
27003;SDS011;14546;47.590;19.022;2022-12-16T03:17:07;34.47;;;17.67;;
27003;SDS011;14546;47.590;19.022;2022-12-16T03:19:33;38.13;;;18.50;;
27003;SDS011;14546;47.590;19.022;2022-12-16T03:22:22;40.40;;;18.52;;
27003;SDS011;14546;47.590;19.022;2022-12-16T03:24:47;37.72;;;18.23;;
27003;SDS011;14546;47.590;19.022;2022-12-16T03:32:17;35.38;;;17.70;;
27003;SDS011;14546;47.590;19.022;2022-12-16T03:34:50;25.48;;;15.05;;
27003;SDS011;14546;47.590;19.022;2022-12-16T03:37:19;29.88;;;15.68;;
27003;SDS011;14546;47.590;19.022;2022-12-16T03:39:46;32.38;;;16.35;;
27003;SDS011;14546;47.590;19.022;2022-12-16T03:42:13;28.02;;;16.00;;
27003;SDS011;14546;47.590;19.022;2022-12-16T03:44:40;26.50;;;14.30;;
27003;SDS011;14546;47.590;19.022;2022-12-16T03:47:07;29.27;;;16.17;;
27003;SDS011;14546;47.590;19.022;2022-12-16T03:49:33;26.98;;;14.65;;
27003;SDS011;14546;47.590;19.022;2022-12-16T03:52:00;26.67;;;14.73;;
27003;SDS011;14546;47.590;19.022;2022-12-16T03:54:27;25.60;;;14.93;;
27003;SDS011;14546;47.590;19.022;2022-12-16T03:56:54;27.13;;;14.52;;
27003;SDS011;14546;47.590;19.022;2022-12-16T03:59:20;25.98;;;14.45;;
27003;SDS011;14546;47.590;19.022;2022-12-16T04:01:46;24.77;;;14.10;;
27003;SDS011;14546;47.590;19.022;2022-12-16T04:04:13;25.95;;;15.18;;
27003;SDS011;14546;47.590;19.022;2022-12-16T04:06:39;26.67;;;15.75;;
27003;SDS011;14546;47.590;19.022;2022-12-16T04:09:05;29.08;;;15.73;;
27003;SDS011;14546;47.590;19.022;2022-12-16T04:11:31;30.85;;;16.23;;
27003;SDS011;14546;47.590;19.022;2022-12-16T04:14:16;27.85;;;16.65;;
27003;SDS011;14546;47.590;19.022;2022-12-16T04:17:01;38.80;;;19.55;;
27003;SDS011;14546;47.590;19.022;2022-12-16T04:19:46;30.63;;;17.23;;
27003;SDS011;14546;47.590;19.022;2022-12-16T04:22:36;26.75;;;16.67;;
27003;SDS011;14546;47.590;19.022;2022-12-16T04:25:22;40.45;;;17.88;;
27003;SDS011;14546;47.590;19.022;2022-12-16T04:27:51;44.75;;;19.60;;
27003;SDS011;14546;47.590;19.022;2022-12-16T04:30:18;31.20;;;18.65;;
27003;SDS011;14546;47.590;19.022;2022-12-16T04:35:30;33.65;;;18.75;;
27003;SDS011;14546;47.590;19.022;2022-12-16T04:38:15;27.23;;;16.77;;
27003;SDS011;14546;47.590;19.022;2022-12-16T04:41:00;28.15;;;16.35;;
27003;SDS011;14546;47.590;19.022;2022-12-16T04:43:58;28.90;;;16.55;;
27003;SDS011;14546;47.590;19.022;2022-12-16T04:46:43;30.92;;;17.88;;
27003;SDS011;14546;47.590;19.022;2022-12-16T04:49:28;32.60;;;17.55;;
27003;SDS011;14546;47.590;19.022;2022-12-16T04:52:13;34.13;;;19.20;;
27003;SDS011;14546;47.590;19.022;2022-12-16T04:54:58;38.15;;;20.42;;
27003;SDS011;14546;47.590;19.022;2022-12-16T04:57:43;41.30;;;20.65;;
27003;SDS011;14546;47.590;19.022;2022-12-16T05:00:30;34.38;;;19.40;;
27003;SDS011;14546;47.590;19.022;2022-12-16T05:03:15;32.92;;;19.42;;
27003;SDS011;14546;47.590;19.022;2022-12-16T05:06:07;34.80;;;19.55;;
27003;SDS011;14546;47.590;19.022;2022-12-16T05:08:52;31.90;;;18.48;;
27003;SDS011;14546;47.590;19.022;2022-12-16T05:11:36;36.95;;;20.52;;
27003;SDS011;14546;47.590;19.022;2022-12-16T05:14:21;31.30;;;18.00;;
27003;SDS011;14546;47.590;19.022;2022-12-16T05:17:07;33.38;;;17.83;;
27003;SDS011;14546;47.590;19.022;2022-12-16T05:19:51;25.52;;;15.50;;
27003;SDS011;14546;47.590;19.022;2022-12-16T05:22:36;30.73;;;18.48;;
27003;SDS011;14546;47.590;19.022;2022-12-16T05:25:21;27.50;;;17.50;;
27003;SDS011;14546;47.590;19.022;2022-12-16T05:28:05;31.20;;;18.73;;
27003;SDS011;14546;47.590;19.022;2022-12-16T05:30:50;30.17;;;19.15;;
27003;SDS011;14546;47.590;19.022;2022-12-16T05:33:35;44.33;;;22.90;;
27003;SDS011;14546;47.590;19.022;2022-12-16T05:36:19;60.97;;;31.50;;
27003;SDS011;14546;47.590;19.022;2022-12-16T05:39:04;54.40;;;29.58;;
27003;SDS011;14546;47.590;19.022;2022-12-16T05:41:48;42.80;;;25.35;;
27003;SDS011;14546;47.590;19.022;2022-12-16T05:44:34;48.25;;;29.13;;
27003;SDS011;14546;47.590;19.022;2022-12-16T05:47:18;38.90;;;23.80;;
27003;SDS011;14546;47.590;19.022;2022-12-16T05:50:04;46.97;;;23.67;;
27003;SDS011;14546;47.590;19.022;2022-12-16T05:52:49;33.35;;;20.67;;
27003;SDS011;14546;47.590;19.022;2022-12-16T05:55:34;33.83;;;20.58;;
27003;SDS011;14546;47.590;19.022;2022-12-16T05:58:22;56.75;;;30.58;;
27003;SDS011;14546;47.590;19.022;2022-12-16T06:01:10;51.90;;;30.58;;
27003;SDS011;14546;47.590;19.022;2022-12-16T06:03:55;46.28;;;27.35;;
27003;SDS011;14546;47.590;19.022;2022-12-16T06:06:40;53.05;;;27.40;;
27003;SDS011;14546;47.590;19.022;2022-12-16T06:09:25;46.47;;;25.35;;
27003;SDS011;14546;47.590;19.022;2022-12-16T06:12:10;39.28;;;22.77;;
27003;SDS011;14546;47.590;19.022;2022-12-16T06:14:55;63.85;;;32.17;;
27003;SDS011;14546;47.590;19.022;2022-12-16T06:17:40;51.75;;;26.98;;
27003;SDS011;14546;47.590;19.022;2022-12-16T06:20:25;46.10;;;23.00;;
27003;SDS011;14546;47.590;19.022;2022-12-16T06:23:10;43.63;;;22.48;;
27003;SDS011;14546;47.590;19.022;2022-12-16T06:25:55;45.97;;;25.38;;
27003;SDS011;14546;47.590;19.022;2022-12-16T06:28:40;44.38;;;24.00;;
27003;SDS011;14546;47.590;19.022;2022-12-16T06:31:24;47.97;;;24.52;;
27003;SDS011;14546;47.590;19.022;2022-12-16T06:34:09;53.38;;;25.40;;
27003;SDS011;14546;47.590;19.022;2022-12-16T06:36:53;47.55;;;24.33;;
27003;SDS011;14546;47.590;19.022;2022-12-16T06:39:38;47.70;;;24.25;;
27003;SDS011;14546;47.590;19.022;2022-12-16T06:42:22;58.83;;;24.45;;
27003;SDS011;14546;47.590;19.022;2022-12-16T06:45:07;45.40;;;24.27;;
27003;SDS011;14546;47.590;19.022;2022-12-16T06:47:52;48.17;;;25.30;;
27003;SDS011;14546;47.590;19.022;2022-12-16T06:50:37;43.40;;;24.35;;
27003;SDS011;14546;47.590;19.022;2022-12-16T06:53:21;50.85;;;25.00;;
27003;SDS011;14546;47.590;19.022;2022-12-16T06:56:06;61.33;;;27.23;;
27003;SDS011;14546;47.590;19.022;2022-12-16T06:58:51;47.40;;;23.75;;
27003;SDS011;14546;47.590;19.022;2022-12-16T07:01:35;50.88;;;25.75;;
27003;SDS011;14546;47.590;19.022;2022-12-16T07:04:20;63.63;;;27.90;;
27003;SDS011;14546;47.590;19.022;2022-12-16T07:07:05;50.08;;;25.75;;
27003;SDS011;14546;47.590;19.022;2022-12-16T07:09:50;44.72;;;23.10;;
27003;SDS011;14546;47.590;19.022;2022-12-16T07:12:35;45.55;;;22.92;;
27003;SDS011;14546;47.590;19.022;2022-12-16T07:15:19;44.47;;;22.58;;
27003;SDS011;14546;47.590;19.022;2022-12-16T07:18:04;62.20;;;26.15;;
27003;SDS011;14546;47.590;19.022;2022-12-16T07:20:48;70.95;;;26.30;;
27003;SDS011;14546;47.590;19.022;2022-12-16T07:23:33;56.45;;;24.85;;
27003;SDS011;14546;47.590;19.022;2022-12-16T07:26:28;501.00;;;39.58;;
27003;SDS011;14546;47.590;19.022;2022-12-16T07:29:13;427.00;;;36.15;;
27003;SDS011;14546;47.590;19.022;2022-12-16T07:31:58;216.80;;;32.55;;
27003;SDS011;14546;47.590;19.022;2022-12-16T07:34:42;176.95;;;33.05;;
27003;SDS011;14546;47.590;19.022;2022-12-16T07:37:27;366.42;;;37.55;;
27003;SDS011;14546;47.590;19.022;2022-12-16T07:40:12;75.78;;;31.05;;
27003;SDS011;14546;47.590;19.022;2022-12-16T07:42:57;140.23;;;33.08;;
27003;SDS011;14546;47.590;19.022;2022-12-16T07:45:42;238.27;;;39.20;;
27003;SDS011;14546;47.590;19.022;2022-12-16T07:48:26;108.05;;;34.03;;
27003;SDS011;14546;47.590;19.022;2022-12-16T07:51:11;87.05;;;31.75;;
27003;SDS011;14546;47.590;19.022;2022-12-16T07:53:55;178.35;;;34.53;;
27003;SDS011;14546;47.590;19.022;2022-12-16T07:56:40;74.20;;;30.90;;
27003;SDS011;14546;47.590;19.022;2022-12-16T07:59:25;146.32;;;32.63;;
27003;SDS011;14546;47.590;19.022;2022-12-16T08:02:10;110.72;;;32.65;;
27003;SDS011;14546;47.590;19.022;2022-12-16T08:04:55;74.05;;;29.23;;
27003;SDS011;14546;47.590;19.022;2022-12-16T08:07:39;81.10;;;31.27;;
27003;SDS011;14546;47.590;19.022;2022-12-16T08:10:25;97.28;;;31.33;;
27003;SDS011;14546;47.590;19.022;2022-12-16T08:13:11;94.20;;;31.02;;
27003;SDS011;14546;47.590;19.022;2022-12-16T08:15:56;80.45;;;29.75;;
27003;SDS011;14546;47.590;19.022;2022-12-16T08:18:41;117.43;;;30.27;;
27003;SDS011;14546;47.590;19.022;2022-12-16T08:21:25;71.80;;;29.20;;
27003;SDS011;14546;47.590;19.022;2022-12-16T08:24:10;70.50;;;28.95;;
27003;SDS011;14546;47.590;19.022;2022-12-16T08:26:55;65.85;;;29.77;;
27003;SDS011;14546;47.590;19.022;2022-12-16T08:29:40;65.18;;;29.02;;
27003;SDS011;14546;47.590;19.022;2022-12-16T08:32:25;75.43;;;30.70;;
27003;SDS011;14546;47.590;19.022;2022-12-16T08:35:10;60.60;;;28.48;;
27003;SDS011;14546;47.590;19.022;2022-12-16T08:37:55;66.18;;;30.95;;
27003;SDS011;14546;47.590;19.022;2022-12-16T08:40:43;85.57;;;32.45;;
27003;SDS011;14546;47.590;19.022;2022-12-16T08:43:34;144.63;;;32.28;;
27003;SDS011;14546;47.590;19.022;2022-12-16T08:46:21;100.30;;;33.37;;
27003;SDS011;14546;47.590;19.022;2022-12-16T08:49:06;69.05;;;27.65;;
27003;SDS011;14546;47.590;19.022;2022-12-16T08:51:50;60.60;;;27.02;;
27003;SDS011;14546;47.590;19.022;2022-12-16T08:54:35;75.05;;;28.02;;
27003;SDS011;14546;47.590;19.022;2022-12-16T08:57:20;73.93;;;28.50;;
27003;SDS011;14546;47.590;19.022;2022-12-16T09:00:05;68.18;;;28.70;;
27003;SDS011;14546;47.590;19.022;2022-12-16T09:02:56;70.85;;;30.45;;
27003;SDS011;14546;47.590;19.022;2022-12-16T09:05:41;67.97;;;27.15;;
27003;SDS011;14546;47.590;19.022;2022-12-16T09:08:26;95.25;;;30.15;;
27003;SDS011;14546;47.590;19.022;2022-12-16T09:11:16;70.90;;;28.10;;
27003;SDS011;14546;47.590;19.022;2022-12-16T09:14:01;186.07;;;30.00;;
27003;SDS011;14546;47.590;19.022;2022-12-16T09:16:46;170.43;;;29.33;;
27003;SDS011;14546;47.590;19.022;2022-12-16T09:19:31;245.15;;;29.55;;
27003;SDS011;14546;47.590;19.022;2022-12-16T09:22:16;62.78;;;25.73;;
27003;SDS011;14546;47.590;19.022;2022-12-16T09:25:00;75.45;;;26.77;;
27003;SDS011;14546;47.590;19.022;2022-12-16T09:27:47;68.38;;;26.05;;
27003;SDS011;14546;47.590;19.022;2022-12-16T09:30:33;57.63;;;24.88;;
27003;SDS011;14546;47.590;19.022;2022-12-16T09:33:18;62.83;;;26.40;;
27003;SDS011;14546;47.590;19.022;2022-12-16T09:36:02;71.45;;;25.92;;
27003;SDS011;14546;47.590;19.022;2022-12-16T09:38:47;70.50;;;26.58;;
27003;SDS011;14546;47.590;19.022;2022-12-16T09:41:39;71.55;;;26.50;;
27003;SDS011;14546;47.590;19.022;2022-12-16T09:47:37;61.25;;;24.73;;
27003;SDS011;14546;47.590;19.022;2022-12-16T09:50:24;82.78;;;27.15;;
27003;SDS011;14546;47.590;19.022;2022-12-16T09:53:12;53.00;;;23.58;;
27003;SDS011;14546;47.590;19.022;2022-12-16T09:55:57;63.42;;;24.40;;
27003;SDS011;14546;47.590;19.022;2022-12-16T09:58:48;99.00;;;34.97;;
27003;SDS011;14546;47.590;19.022;2022-12-16T10:01:35;69.45;;;31.17;;
27003;SDS011;14546;47.590;19.022;2022-12-16T10:04:20;73.72;;;32.90;;
27003;SDS011;14546;47.590;19.022;2022-12-16T10:07:06;79.78;;;32.63;;
27003;SDS011;14546;47.590;19.022;2022-12-16T10:15:42;70.60;;;33.05;;
27003;SDS011;14546;47.590;19.022;2022-12-16T10:27:14;68.60;;;32.60;;
27003;SDS011;14546;47.590;19.022;2022-12-16T10:30:00;68.65;;;31.85;;
27003;SDS011;14546;47.590;19.022;2022-12-16T10:32:46;77.05;;;34.55;;
27003;SDS011;14546;47.590;19.022;2022-12-16T10:35:46;71.80;;;33.40;;
27003;SDS011;14546;47.590;19.022;2022-12-16T10:41:20;75.63;;;35.33;;
27003;SDS011;14546;47.590;19.022;2022-12-16T10:44:12;90.85;;;37.83;;
27003;SDS011;14546;47.590;19.022;2022-12-16T10:46:59;94.78;;;40.20;;
27003;SDS011;14546;47.590;19.022;2022-12-16T10:49:43;84.38;;;36.35;;
27003;SDS011;14546;47.590;19.022;2022-12-16T10:52:30;89.18;;;35.22;;
27003;SDS011;14546;47.590;19.022;2022-12-16T10:55:36;87.90;;;32.63;;
27003;SDS011;14546;47.590;19.022;2022-12-16T10:58:37;87.97;;;30.77;;
27003;SDS011;14546;47.590;19.022;2022-12-16T11:01:24;77.93;;;29.13;;
27003;SDS011;14546;47.590;19.022;2022-12-16T11:07:26;77.75;;;30.85;;
27003;SDS011;14546;47.590;19.022;2022-12-16T11:10:53;85.75;;;32.60;;
27003;SDS011;14546;47.590;19.022;2022-12-16T11:13:24;94.78;;;35.25;;
27003;SDS011;14546;47.590;19.022;2022-12-16T11:16:27;94.13;;;34.45;;
27003;SDS011;14546;47.590;19.022;2022-12-16T11:19:25;86.90;;;34.67;;
27003;SDS011;14546;47.590;19.022;2022-12-16T11:22:19;103.95;;;37.67;;
27003;SDS011;14546;47.590;19.022;2022-12-16T11:28:01;92.65;;;37.35;;
27003;SDS011;14546;47.590;19.022;2022-12-16T11:30:49;97.15;;;37.97;;
27003;SDS011;14546;47.590;19.022;2022-12-16T11:33:35;90.40;;;36.72;;
27003;SDS011;14546;47.590;19.022;2022-12-16T11:36:21;84.25;;;37.28;;
27003;SDS011;14546;47.590;19.022;2022-12-16T11:39:06;97.00;;;38.72;;
27003;SDS011;14546;47.590;19.022;2022-12-16T11:41:56;100.28;;;38.67;;
27003;SDS011;14546;47.590;19.022;2022-12-16T11:44:43;164.40;;;45.33;;
27003;SDS011;14546;47.590;19.022;2022-12-16T11:47:48;102.95;;;42.72;;
27003;SDS011;14546;47.590;19.022;2022-12-16T11:50:35;131.50;;;44.85;;
27003;SDS011;14546;47.590;19.022;2022-12-16T11:53:34;110.30;;;42.35;;
27003;SDS011;14546;47.590;19.022;2022-12-16T11:56:21;241.52;;;47.38;;
27003;SDS011;14546;47.590;19.022;2022-12-16T11:59:31;191.77;;;43.95;;
27003;SDS011;14546;47.590;19.022;2022-12-16T12:05:16;122.47;;;41.45;;
27003;SDS011;14546;47.590;19.022;2022-12-16T12:19:22;84.72;;;35.35;;
27003;SDS011;14546;47.590;19.022;2022-12-16T12:22:12;97.57;;;37.00;;
27003;SDS011;14546;47.590;19.022;2022-12-16T12:25:12;75.20;;;33.22;;
27003;SDS011;14546;47.590;19.022;2022-12-16T12:31:20;47.60;;;23.83;;
27003;SDS011;14546;47.590;19.022;2022-12-16T12:34:12;47.08;;;23.33;;
27003;SDS011;14546;47.590;19.022;2022-12-16T12:39:48;41.75;;;22.40;;
27003;SDS011;14546;47.590;19.022;2022-12-16T12:42:38;46.33;;;23.02;;
27003;SDS011;14546;47.590;19.022;2022-12-16T12:48:31;45.97;;;23.70;;
27003;SDS011;14546;47.590;19.022;2022-12-16T12:51:23;40.60;;;20.80;;
27003;SDS011;14546;47.590;19.022;2022-12-16T12:54:12;34.92;;;19.23;;
27003;SDS011;14546;47.590;19.022;2022-12-16T12:56:59;37.97;;;20.52;;
27003;SDS011;14546;47.590;19.022;2022-12-16T12:59:47;36.10;;;19.95;;
27003;SDS011;14546;47.590;19.022;2022-12-16T13:02:57;31.67;;;18.20;;
27003;SDS011;14546;47.590;19.022;2022-12-16T13:05:42;31.83;;;18.33;;
27003;SDS011;14546;47.590;19.022;2022-12-16T13:11:21;30.55;;;16.83;;
27003;SDS011;14546;47.590;19.022;2022-12-16T13:17:15;17.75;;;11.52;;
27003;SDS011;14546;47.590;19.022;2022-12-16T13:20:00;18.10;;;12.20;;
27003;SDS011;14546;47.590;19.022;2022-12-16T13:22:45;19.23;;;12.45;;
27003;SDS011;14546;47.590;19.022;2022-12-16T13:28:28;22.58;;;13.15;;
27003;SDS011;14546;47.590;19.022;2022-12-16T13:31:14;20.20;;;13.18;;
27003;SDS011;14546;47.590;19.022;2022-12-16T13:34:42;14.55;;;9.40;;
27003;SDS011;14546;47.590;19.022;2022-12-16T13:37:15;13.10;;;8.57;;
27003;SDS011;14546;47.590;19.022;2022-12-16T13:40:04;14.20;;;9.70;;
27003;SDS011;14546;47.590;19.022;2022-12-16T13:42:53;18.70;;;12.30;;
27003;SDS011;14546;47.590;19.022;2022-12-16T13:45:40;21.75;;;13.75;;
27003;SDS011;14546;47.590;19.022;2022-12-16T13:48:29;23.67;;;15.00;;
27003;SDS011;14546;47.590;19.022;2022-12-16T13:54:18;22.83;;;14.00;;
27003;SDS011;14546;47.590;19.022;2022-12-16T13:57:02;24.10;;;15.00;;
27003;SDS011;14546;47.590;19.022;2022-12-16T13:59:47;22.50;;;14.68;;
27003;SDS011;14546;47.590;19.022;2022-12-16T14:02:40;24.60;;;15.32;;
27003;SDS011;14546;47.590;19.022;2022-12-16T14:05:34;23.67;;;16.15;;
27003;SDS011;14546;47.590;19.022;2022-12-16T14:08:21;25.23;;;16.52;;
27003;SDS011;14546;47.590;19.022;2022-12-16T14:11:12;24.23;;;16.05;;
27003;SDS011;14546;47.590;19.022;2022-12-16T14:16:54;25.27;;;15.80;;
27003;SDS011;14546;47.590;19.022;2022-12-16T14:25:28;22.55;;;15.07;;
27003;SDS011;14546;47.590;19.022;2022-12-16T14:31:04;24.70;;;14.85;;
27003;SDS011;14546;47.590;19.022;2022-12-16T14:33:52;27.98;;;16.55;;
27003;SDS011;14546;47.590;19.022;2022-12-16T14:36:38;25.80;;;16.05;;
27003;SDS011;14546;47.590;19.022;2022-12-16T14:39:29;29.90;;;17.50;;
27003;SDS011;14546;47.590;19.022;2022-12-16T14:42:22;32.40;;;20.00;;
27003;SDS011;14546;47.590;19.022;2022-12-16T14:54:34;29.17;;;17.77;;
27003;SDS011;14546;47.590;19.022;2022-12-16T14:57:28;34.13;;;20.55;;
27003;SDS011;14546;47.590;19.022;2022-12-16T15:00:14;36.78;;;21.08;;
27003;SDS011;14546;47.590;19.022;2022-12-16T15:03:20;39.25;;;21.90;;
27003;SDS011;14546;47.590;19.022;2022-12-16T15:06:10;50.83;;;23.92;;
27003;SDS011;14546;47.590;19.022;2022-12-16T15:08:59;46.67;;;24.58;;
27003;SDS011;14546;47.590;19.022;2022-12-16T15:11:45;42.90;;;24.45;;
27003;SDS011;14546;47.590;19.022;2022-12-16T15:14:32;44.65;;;23.70;;
27003;SDS011;14546;47.590;19.022;2022-12-16T15:17:22;49.25;;;27.27;;
27003;SDS011;14546;47.590;19.022;2022-12-16T15:20:29;49.47;;;27.85;;
27003;SDS011;14546;47.590;19.022;2022-12-16T15:23:18;58.50;;;29.73;;
27003;SDS011;14546;47.590;19.022;2022-12-16T15:26:04;53.65;;;27.02;;
27003;SDS011;14546;47.590;19.022;2022-12-16T15:28:49;49.00;;;27.52;;
27003;SDS011;14546;47.590;19.022;2022-12-16T15:31:35;63.90;;;30.92;;
27003;SDS011;14546;47.590;19.022;2022-12-16T15:37:18;57.75;;;31.13;;
27003;SDS011;14546;47.590;19.022;2022-12-16T15:40:04;65.20;;;33.40;;
27003;SDS011;14546;47.590;19.022;2022-12-16T15:42:50;66.28;;;33.42;;
27003;SDS011;14546;47.590;19.022;2022-12-16T15:45:35;58.47;;;30.15;;
27003;SDS011;14546;47.590;19.022;2022-12-16T15:48:25;55.35;;;28.63;;
27003;SDS011;14546;47.590;19.022;2022-12-16T15:54:15;45.38;;;21.50;;
27003;SDS011;14546;47.590;19.022;2022-12-16T15:56:59;44.30;;;23.88;;
27003;SDS011;14546;47.590;19.022;2022-12-16T15:59:55;41.17;;;23.08;;
27003;SDS011;14546;47.590;19.022;2022-12-16T16:02:44;39.92;;;22.00;;
27003;SDS011;14546;47.590;19.022;2022-12-16T16:05:29;44.28;;;24.23;;
27003;SDS011;14546;47.590;19.022;2022-12-16T16:08:14;48.67;;;24.40;;
27003;SDS011;14546;47.590;19.022;2022-12-16T16:10:59;43.13;;;22.45;;
27003;SDS011;14546;47.590;19.022;2022-12-16T16:13:43;46.38;;;23.73;;
27003;SDS011;14546;47.590;19.022;2022-12-16T16:16:28;46.13;;;21.05;;
27003;SDS011;14546;47.590;19.022;2022-12-16T16:19:21;45.92;;;23.23;;
27003;SDS011;14546;47.590;19.022;2022-12-16T16:22:10;40.15;;;21.58;;
27003;SDS011;14546;47.590;19.022;2022-12-16T16:24:56;36.17;;;19.30;;
27003;SDS011;14546;47.590;19.022;2022-12-16T16:27:41;43.88;;;21.17;;
27003;SDS011;14546;47.590;19.022;2022-12-16T16:30:25;37.03;;;19.30;;
27003;SDS011;14546;47.590;19.022;2022-12-16T16:33:10;34.25;;;16.70;;
27003;SDS011;14546;47.590;19.022;2022-12-16T16:35:55;36.05;;;18.17;;
27003;SDS011;14546;47.590;19.022;2022-12-16T16:38:40;32.55;;;16.48;;
27003;SDS011;14546;47.590;19.022;2022-12-16T16:41:24;30.25;;;16.88;;
27003;SDS011;14546;47.590;19.022;2022-12-16T16:44:09;34.03;;;17.52;;
27003;SDS011;14546;47.590;19.022;2022-12-16T16:46:54;33.20;;;16.48;;
27003;SDS011;14546;47.590;19.022;2022-12-16T16:49:40;32.58;;;16.55;;
27003;SDS011;14546;47.590;19.022;2022-12-16T16:52:26;36.13;;;18.58;;
27003;SDS011;14546;47.590;19.022;2022-12-16T16:55:18;30.00;;;17.27;;
27003;SDS011;14546;47.590;19.022;2022-12-16T16:58:04;34.05;;;18.25;;
27003;SDS011;14546;47.590;19.022;2022-12-16T17:00:50;33.38;;;19.38;;
27003;SDS011;14546;47.590;19.022;2022-12-16T17:03:35;35.67;;;19.98;;
27003;SDS011;14546;47.590;19.022;2022-12-16T17:06:19;35.97;;;20.08;;
27003;SDS011;14546;47.590;19.022;2022-12-16T17:09:04;38.90;;;19.63;;
27003;SDS011;14546;47.590;19.022;2022-12-16T17:11:48;44.88;;;21.00;;
27003;SDS011;14546;47.590;19.022;2022-12-16T17:14:33;33.72;;;21.05;;
27003;SDS011;14546;47.590;19.022;2022-12-16T17:17:18;37.22;;;19.83;;
27003;SDS011;14546;47.590;19.022;2022-12-16T17:20:02;33.88;;;18.90;;
27003;SDS011;14546;47.590;19.022;2022-12-16T17:22:47;38.67;;;19.98;;
27003;SDS011;14546;47.590;19.022;2022-12-16T17:25:32;41.47;;;19.15;;
27003;SDS011;14546;47.590;19.022;2022-12-16T17:28:17;39.72;;;18.05;;
27003;SDS011;14546;47.590;19.022;2022-12-16T17:31:04;36.65;;;19.90;;
27003;SDS011;14546;47.590;19.022;2022-12-16T17:33:52;40.35;;;18.45;;
27003;SDS011;14546;47.590;19.022;2022-12-16T17:36:37;40.30;;;20.02;;
27003;SDS011;14546;47.590;19.022;2022-12-16T17:39:21;40.50;;;19.20;;
27003;SDS011;14546;47.590;19.022;2022-12-16T17:42:06;52.40;;;20.83;;